createdAt,value
2023-01-19T00:12:41.704Z,0.56
2023-01-19T00:32:41.724Z,0.66
2023-01-19T00:52:41.779Z,0.63
2023-01-19T01:12:41.590Z,0.56
2023-01-19T01:32:41.774Z,0.55
2023-01-19T01:52:41.783Z,0.44
2023-01-19T02:12:41.609Z,0.43
2023-01-19T02:32:41.804Z,0.53
2023-01-19T02:52:41.912Z,0.42
2023-01-19T03:12:41.833Z,0.37
2023-01-19T03:32:41.720Z,0.42
2023-01-19T03:52:41.660Z,0.42
2023-01-19T04:12:41.767Z,0.34
2023-01-19T04:32:41.885Z,0.14
2023-01-19T04:52:41.782Z,-0.06
2023-01-19T05:12:41.864Z,-0.21
2023-01-19T05:32:41.857Z,-0.38
2023-01-19T05:52:41.907Z,-0.26
2023-01-19T06:12:41.900Z,-0.05
2023-01-19T06:32:41.819Z,-0.13
2023-01-19T06:52:41.834Z,-0.32
2023-01-19T07:12:41.871Z,-0.50
2023-01-19T07:32:41.833Z,-0.57
2023-01-19T07:52:41.864Z,-0.47
2023-01-19T08:12:41.861Z,-0.50
2023-01-19T08:32:41.745Z,-0.27
2023-01-19T08:52:41.746Z,-0.29
2023-01-19T09:12:41.929Z,0.07
2023-01-19T09:32:41.772Z,0.15
2023-01-19T09:52:41.780Z,0.21
2023-01-19T10:12:41.798Z,0.55
2023-01-19T10:32:41.804Z,0.60
2023-01-19T10:52:41.817Z,0.76
2023-01-19T11:12:41.831Z,0.94
2023-01-19T11:32:41.853Z,1.39
2023-01-19T11:52:41.750Z,1.73
2023-01-19T12:12:41.767Z,1.84
2023-01-19T12:32:41.789Z,1.94
2023-01-19T12:52:41.796Z,2.00
2023-01-19T13:12:41.817Z,2.33
2023-01-19T13:32:41.828Z,2.32
2023-01-19T13:52:41.744Z,2.14
2023-01-19T14:12:41.768Z,2.14
2023-01-19T14:32:41.768Z,2.06
2023-01-19T14:52:41.788Z,2.01
2023-01-19T15:12:41.797Z,1.92
2023-01-19T15:32:41.805Z,1.79
2023-01-19T15:52:41.811Z,1.75
2023-01-19T16:12:41.836Z,1.67
2023-01-19T16:32:41.841Z,1.53
2023-01-19T16:52:41.853Z,1.45
2023-01-19T17:12:41.762Z,1.39
2023-01-19T17:32:41.776Z,1.19
2023-01-19T17:52:41.788Z,1.25
2023-01-19T18:12:41.800Z,1.25
2023-01-19T18:32:41.821Z,1.24
2023-01-19T18:52:41.829Z,1.17
2023-01-19T19:12:41.843Z,1.21
2023-01-19T19:32:41.913Z,1.23
2023-01-19T19:52:41.869Z,1.12
2023-01-19T20:12:41.785Z,1.05
2023-01-19T20:32:41.801Z,1.04
2023-01-19T20:52:41.807Z,1.03
2023-01-19T21:12:41.816Z,0.88
2023-01-19T21:32:41.835Z,0.71
2023-01-19T21:52:41.853Z,0.59
2023-01-19T22:12:41.854Z,0.42
2023-01-19T22:52:41.885Z,0.25
2023-01-19T23:12:41.909Z,0.15
2023-01-19T23:32:41.906Z,0.12
2023-01-19T23:52:41.901Z,0.19
